Time;durP1;ratioP1;P1;durP2;ratioP2;P2;SDS_P1;SDS_P2;PMS_P1;PMS_P2;Temp;Humidity;BMP_temperature;BMP_pressure;BME280_temperature;BME280_humidity;BME280_pressure;Samples;Min_cycle;Max_cycle;Signal;HPM_P1;HPM_P2
2023/12/13 00:02:24;;;;;;;0.73;0.68;;;7.50;99.90;;;;;;5023999;28;20061;-74
2023/12/13 00:04:50;;;;;;;0.68;0.68;;;7.60;99.90;;;;;;5023348;28;20052;-74
2023/12/13 00:07:15;;;;;;;0.50;0.50;;;7.50;99.90;;;;;;5024937;28;20788;-74
2023/12/13 00:09:41;;;;;;;2.83;2.40;;;7.50;99.90;;;;;;5022917;28;20056;-73
2023/12/13 00:12:07;;;;;;;3.33;1.35;;;7.50;99.90;;;;;;5020528;28;20065;-74
2023/12/13 00:14:32;;;;;;;1.30;1.20;;;7.50;99.90;;;;;;5019784;28;20080;-74
2023/12/13 00:16:58;;;;;;;0.70;0.70;;;7.50;99.90;;;;;;5019559;28;20120;-74
2023/12/13 00:19:24;;;;;;;1.02;1.00;;;7.50;99.90;;;;;;5021053;28;20457;-73
2023/12/13 00:21:49;;;;;;;0.50;0.50;;;7.50;99.90;;;;;;5024118;28;20421;-74
2023/12/13 00:24:15;;;;;;;0.90;0.50;;;7.50;99.90;;;;;;5025042;28;20045;-73
2023/12/13 00:26:40;;;;;;;0.75;0.68;;;7.50;99.90;;;;;;5023756;28;20054;-73
2023/12/13 00:29:06;;;;;;;0.60;0.60;;;7.50;99.90;;;;;;5025975;28;20124;-74
2023/12/13 00:31:32;;;;;;;1.52;0.63;;;7.50;99.90;;;;;;5024311;28;20133;-73
2023/12/13 00:33:58;;;;;;;0.50;0.50;;;7.40;99.90;;;;;;5024278;28;20124;-73
2023/12/13 00:36:23;;;;;;;0.60;0.60;;;7.40;99.90;;;;;;5026458;28;20049;-73
2023/12/13 00:38:49;;;;;;;1.10;1.02;;;7.40;99.90;;;;;;5026345;28;20045;-73
2023/12/13 00:41:14;;;;;;;1.70;1.25;;;7.40;99.90;;;;;;5023940;28;20041;-73
2023/12/13 00:43:40;;;;;;;1.15;1.05;;;7.40;99.90;;;;;;5028848;28;20065;-73
2023/12/13 00:46:13;;;;;;;2.55;0.70;;;7.40;99.90;;;;;;5027109;28;20498;-73
2023/12/13 00:48:38;;;;;;;2.88;1.48;;;7.40;99.90;;;;;;5025686;28;20049;-73
2023/12/13 00:51:04;;;;;;;1.75;1.52;;;7.40;99.90;;;;;;5023011;28;20056;-73
2023/12/13 00:53:30;;;;;;;0.95;0.95;;;7.30;99.90;;;;;;5026661;28;20041;-73
2023/12/13 00:55:55;;;;;;;1.35;1.15;;;7.40;99.90;;;;;;5025837;28;20128;-73
2023/12/13 00:58:21;;;;;;;0.35;0.35;;;7.40;99.90;;;;;;5024979;28;20037;-73
2023/12/13 01:00:47;;;;;;;0.70;0.70;;;7.40;99.90;;;;;;5023271;28;20037;-73
2023/12/13 01:03:13;;;;;;;1.00;1.00;;;7.40;99.90;;;;;;5024576;28;20044;-73
2023/12/13 01:05:39;;;;;;;0.68;0.68;;;7.40;99.90;;;;;;5032637;28;20145;-73
2023/12/13 01:08:04;;;;;;;1.33;1.23;;;7.40;99.90;;;;;;5022278;28;20124;-73
2023/12/13 01:10:30;;;;;;;1.30;0.70;;;7.40;99.90;;;;;;5022648;28;20457;-73
2023/12/13 01:12:57;;;;;;;1.30;1.20;;;7.40;99.90;;;;;;5025591;28;20041;-73
2023/12/13 01:15:23;;;;;;;1.15;0.98;;;7.40;99.90;;;;;;5024197;28;20053;-74
2023/12/13 01:17:49;;;;;;;0.77;0.77;;;7.40;99.90;;;;;;5022647;28;20462;-73
2023/12/13 01:20:14;;;;;;;0.55;0.55;;;7.40;99.90;;;;;;5023288;28;20100;-74
2023/12/13 01:22:40;;;;;;;5.68;0.77;;;7.30;99.90;;;;;;5018114;28;20620;-73
2023/12/13 01:25:06;;;;;;;0.57;0.50;;;7.30;99.90;;;;;;5025256;28;20132;-73
2023/12/13 01:27:32;;;;;;;0.75;0.68;;;7.30;99.90;;;;;;5024051;28;20451;-73
2023/12/13 01:29:57;;;;;;;0.50;0.50;;;7.20;99.90;;;;;;5021620;28;20096;-74
2023/12/13 01:32:23;;;;;;;0.50;0.50;;;7.20;99.90;;;;;;5022722;28;20457;-73
2023/12/13 01:34:48;;;;;;;0.45;0.45;;;7.20;99.90;;;;;;5025268;28;20041;-73
2023/12/13 01:37:14;;;;;;;0.73;0.73;;;7.20;99.90;;;;;;5020044;28;20060;-73
2023/12/13 01:39:41;;;;;;;1.02;1.02;;;7.10;99.90;;;;;;5020968;28;20072;-73
2023/12/13 01:42:07;;;;;;;1.20;1.15;;;7.10;99.90;;;;;;5022204;28;20045;-74
2023/12/13 01:44:32;;;;;;;0.70;0.70;;;7.00;99.90;;;;;;5020729;28;20044;-73
2023/12/13 01:46:59;;;;;;;0.82;0.73;;;7.00;99.90;;;;;;5023116;28;20045;-73
2023/12/13 01:49:25;;;;;;;0.60;0.60;;;7.10;99.90;;;;;;5021449;28;20131;-74
2023/12/13 01:51:51;;;;;;;1.33;1.23;;;7.10;99.90;;;;;;5023551;28;20046;-73
2023/12/13 01:54:18;;;;;;;0.45;0.45;;;7.10;99.90;;;;;;5020700;28;20049;-73
2023/12/13 01:56:45;;;;;;;0.45;0.45;;;7.00;99.90;;;;;;5025351;28;20548;-73
2023/12/13 01:59:12;;;;;;;0.60;0.60;;;7.10;99.90;;;;;;5027654;28;20915;-73
2023/12/13 02:01:38;;;;;;;1.00;1.00;;;7.00;99.90;;;;;;5021932;28;20060;-73
2023/12/13 02:04:05;;;;;;;1.38;1.33;;;7.00;99.90;;;;;;5018553;28;20589;-73
2023/12/13 02:06:30;;;;;;;0.85;0.85;;;7.10;99.90;;;;;;5019475;28;20539;-74
2023/12/13 02:08:56;;;;;;;1.20;0.85;;;7.00;99.90;;;;;;5021540;28;20041;-74
2023/12/13 02:11:22;;;;;;;0.93;0.90;;;7.00;99.90;;;;;;5022805;28;20053;-73
2023/12/13 02:13:48;;;;;;;2.50;1.13;;;7.00;99.90;;;;;;5022391;28;20471;-73
2023/12/13 02:16:13;;;;;;;1.30;1.08;;;7.00;99.90;;;;;;5024909;28;20073;-74
2023/12/13 02:18:39;;;;;;;0.55;0.55;;;7.00;99.90;;;;;;5024067;28;20045;-73
2023/12/13 02:21:06;;;;;;;0.68;0.68;;;7.00;99.90;;;;;;5019610;28;20045;-74
2023/12/13 02:23:32;;;;;;;0.90;0.90;;;7.00;99.90;;;;;;5020279;28;20045;-74
2023/12/13 02:26:02;;;;;;;1.25;1.15;;;7.00;99.90;;;;;;5014945;28;20498;-74
2023/12/13 02:28:29;;;;;;;1.45;1.05;;;7.00;99.90;;;;;;5019989;28;20046;-74
2023/12/13 02:30:56;;;;;;;2.50;1.33;;;7.00;99.90;;;;;;5020171;28;20057;-74
2023/12/13 02:33:26;;;;;;;0.50;0.50;;;7.00;99.90;;;;;;5013446;28;20099;-73
2023/12/13 02:35:55;;;;;;;0.70;0.70;;;7.00;99.90;;;;;;5022585;28;20224;-73
2023/12/13 02:38:20;;;;;;;0.90;0.90;;;7.00;99.90;;;;;;5024323;28;20135;-74
2023/12/13 02:40:46;;;;;;;0.90;0.90;;;7.00;99.90;;;;;;5024352;28;20199;-74
2023/12/13 02:43:12;;;;;;;0.50;0.50;;;7.00;99.90;;;;;;5019541;28;20309;-74
2023/12/13 02:45:37;;;;;;;0.90;0.90;;;7.00;99.90;;;;;;5021341;28;20580;-74
2023/12/13 02:48:03;;;;;;;1.35;1.25;;;7.00;99.90;;;;;;5021381;28;20548;-74
2023/12/13 02:50:29;;;;;;;0.65;0.65;;;7.00;99.90;;;;;;5018802;28;20052;-74
2023/12/13 02:52:55;;;;;;;0.40;0.40;;;7.00;99.90;;;;;;5014215;28;20045;-73
2023/12/13 02:55:20;;;;;;;0.47;0.47;;;7.00;99.90;;;;;;5023779;28;20065;-74
2023/12/13 02:57:46;;;;;;;1.95;1.23;;;7.00;99.90;;;;;;5017589;28;20041;-73
2023/12/13 03:00:12;;;;;;;0.73;0.73;;;7.00;99.90;;;;;;5012279;28;20058;-74
2023/12/13 03:02:39;;;;;;;1.48;1.10;;;7.00;99.90;;;;;;5015972;28;20053;-73
2023/12/13 03:05:05;;;;;;;0.43;0.43;;;7.10;99.90;;;;;;5010114;28;20041;-74
2023/12/13 03:07:31;;;;;;;1.05;0.98;;;7.10;99.90;;;;;;5022436;28;20053;-73
2023/12/13 03:09:57;;;;;;;0.45;0.45;;;7.10;99.90;;;;;;5017882;28;20041;-74
2023/12/13 03:12:22;;;;;;;2.58;1.00;;;7.10;99.90;;;;;;5010212;28;20065;-73
2023/12/13 03:14:48;;;;;;;0.70;0.70;;;7.10;99.90;;;;;;5004875;28;20100;-74
2023/12/13 03:17:13;;;;;;;0.88;0.88;;;7.10;99.90;;;;;;5005764;28;20054;-73
2023/12/13 03:19:39;;;;;;;0.93;0.80;;;7.10;99.90;;;;;;5004212;28;20111;-74
2023/12/13 03:22:05;;;;;;;0.75;0.65;;;7.10;99.90;;;;;;5005992;28;20084;-74
2023/12/13 03:24:31;;;;;;;0.82;0.82;;;7.10;99.90;;;;;;5004953;28;20092;-74
2023/12/13 03:26:56;;;;;;;0.60;0.60;;;7.10;99.90;;;;;;5001997;28;20050;-74
2023/12/13 03:29:22;;;;;;;0.55;0.55;;;7.10;99.90;;;;;;5000325;28;20057;-74
2023/12/13 03:31:48;;;;;;;0.70;0.70;;;7.10;99.90;;;;;;4999218;28;20132;-74
2023/12/13 03:34:17;;;;;;;1.80;1.55;;;7.10;99.90;;;;;;5004782;28;20045;-72
2023/12/13 03:36:42;;;;;;;0.88;0.85;;;7.10;99.90;;;;;;5019774;28;20068;-74
2023/12/13 03:39:08;;;;;;;0.50;0.50;;;7.10;99.90;;;;;;5021667;28;20139;-74
2023/12/13 03:41:34;;;;;;;1.15;1.13;;;7.10;99.90;;;;;;5002501;28;20218;-74
2023/12/13 03:43:59;;;;;;;0.50;0.50;;;7.10;99.90;;;;;;5000539;28;21954;-74
2023/12/13 03:46:25;;;;;;;0.40;0.40;;;7.10;99.90;;;;;;5001382;28;20868;-74
2023/12/13 03:48:51;;;;;;;0.77;0.77;;;7.10;99.90;;;;;;5000005;28;20071;-74
2023/12/13 03:51:17;;;;;;;0.60;0.60;;;7.20;99.90;;;;;;4998610;28;20085;-74
2023/12/13 03:53:43;;;;;;;1.02;0.93;;;7.10;99.90;;;;;;5001796;28;20053;-74
2023/12/13 03:56:12;;;;;;;1.17;1.13;;;7.10;99.90;;;;;;5001485;28;20061;-74
2023/12/13 03:58:38;;;;;;;0.90;0.63;;;7.10;99.90;;;;;;4999835;28;20056;-75
2023/12/13 04:01:04;;;;;;;0.50;0.50;;;7.20;99.90;;;;;;5003136;28;20053;-74
2023/12/13 04:03:29;;;;;;;0.80;0.80;;;7.20;99.90;;;;;;5002436;28;20056;-74
2023/12/13 04:05:55;;;;;;;0.80;0.80;;;7.10;99.90;;;;;;5003847;28;20053;-74
2023/12/13 04:08:21;;;;;;;0.50;0.50;;;7.10;99.90;;;;;;5005942;28;20056;-74
2023/12/13 04:10:47;;;;;;;1.75;1.42;;;7.20;99.90;;;;;;5003990;28;20103;-74
2023/12/13 04:13:12;;;;;;;0.90;0.90;;;7.20;99.90;;;;;;5005160;28;20057;-74
2023/12/13 04:15:38;;;;;;;1.20;1.15;;;7.20;99.90;;;;;;5003598;28;20056;-74
2023/12/13 04:18:04;;;;;;;1.00;0.90;;;7.30;99.90;;;;;;5005916;28;20057;-74
2023/12/13 04:20:30;;;;;;;1.20;0.90;;;7.30;99.90;;;;;;5002850;28;20044;-74
2023/12/13 04:22:56;;;;;;;0.50;0.50;;;7.30;99.90;;;;;;4989737;28;20061;-74
2023/12/13 04:25:22;;;;;;;0.63;0.63;;;7.30;99.90;;;;;;5004469;28;20526;-74
2023/12/13 04:27:48;;;;;;;1.42;1.33;;;7.30;99.90;;;;;;5004623;28;20293;-74
2023/12/13 04:30:14;;;;;;;1.25;1.15;;;7.30;99.90;;;;;;5021229;28;20600;-73
2023/12/13 04:32:40;;;;;;;1.45;1.38;;;7.40;99.90;;;;;;5027166;28;20076;-74
2023/12/13 04:35:06;;;;;;;1.38;1.35;;;7.40;99.90;;;;;;5022028;28;20041;-74
2023/12/13 04:37:32;;;;;;;1.80;1.33;;;7.40;99.90;;;;;;5016223;28;20135;-74
2023/12/13 04:39:58;;;;;;;1.13;1.13;;;7.40;99.90;;;;;;5001023;28;20642;-73
2023/12/13 04:42:24;;;;;;;1.40;1.30;;;7.30;99.90;;;;;;5000205;28;20046;-73
2023/12/13 04:44:50;;;;;;;1.30;1.23;;;7.30;99.90;;;;;;4986879;28;20815;-74
2023/12/13 04:47:16;;;;;;;0.73;0.73;;;7.30;99.90;;;;;;5002626;28;20077;-74
2023/12/13 04:49:41;;;;;;;0.50;0.50;;;7.30;99.90;;;;;;4987640;28;20813;-74
2023/12/13 04:52:07;;;;;;;2.22;1.58;;;7.30;99.90;;;;;;5001106;28;20052;-74
2023/12/13 04:54:32;;;;;;;0.70;0.70;;;7.30;99.90;;;;;;5007043;28;20042;-74
2023/12/13 04:56:58;;;;;;;0.65;0.65;;;7.20;99.90;;;;;;5009543;28;20063;-73
2023/12/13 04:59:24;;;;;;;0.80;0.80;;;7.30;99.90;;;;;;5003004;28;20064;-74
2023/12/13 05:01:51;;;;;;;0.82;0.77;;;7.30;99.90;;;;;;5001545;28;20049;-74
2023/12/13 05:04:16;;;;;;;1.23;1.13;;;7.30;99.90;;;;;;4988134;28;20064;-73
2023/12/13 05:06:42;;;;;;;1.33;1.15;;;7.30;99.90;;;;;;5003169;28;20050;-74
2023/12/13 05:09:08;;;;;;;0.70;0.70;;;7.30;99.90;;;;;;5006503;28;20050;-74
2023/12/13 05:11:33;;;;;;;1.25;1.15;;;7.30;99.90;;;;;;5004004;28;20054;-73
2023/12/13 05:13:59;;;;;;;1.30;0.50;;;7.30;99.90;;;;;;5003966;28;20400;-74
2023/12/13 05:16:24;;;;;;;1.00;1.00;;;7.30;99.90;;;;;;5011671;28;20053;-73
2023/12/13 05:18:50;;;;;;;0.82;0.82;;;7.30;99.90;;;;;;5004409;28;20121;-74
2023/12/13 05:21:16;;;;;;;0.60;0.60;;;7.30;99.90;;;;;;5001660;28;20050;-74
2023/12/13 05:23:42;;;;;;;1.45;1.35;;;7.30;99.90;;;;;;5002265;28;20141;-74
2023/12/13 05:26:07;;;;;;;0.73;0.73;;;7.30;99.90;;;;;;5003308;28;20160;-73
2023/12/13 05:28:33;;;;;;;1.42;1.33;;;7.40;99.90;;;;;;5003626;28;20050;-74
2023/12/13 05:30:59;;;;;;;1.65;0.70;;;7.30;99.90;;;;;;5004082;28;20060;-74
2023/12/13 05:33:24;;;;;;;1.00;1.00;;;7.30;99.90;;;;;;5001499;28;20094;-73
2023/12/13 05:35:50;;;;;;;1.40;1.30;;;7.30;99.90;;;;;;5008230;28;20076;-73
2023/12/13 05:38:15;;;;;;;1.35;1.25;;;7.30;99.90;;;;;;5026057;28;20050;-73
2023/12/13 05:40:41;;;;;;;1.73;1.13;;;7.30;99.90;;;;;;5025594;28;20701;-74
2023/12/13 05:43:07;;;;;;;1.13;0.77;;;7.30;99.90;;;;;;5020431;28;20163;-73
2023/12/13 05:45:32;;;;;;;0.45;0.45;;;7.30;99.90;;;;;;5025723;28;20045;-74
2023/12/13 05:47:58;;;;;;;0.63;0.63;;;7.30;99.90;;;;;;5025841;28;20049;-74
2023/12/13 05:50:24;;;;;;;0.50;0.50;;;7.30;99.90;;;;;;5024174;28;20057;-73
2023/12/13 05:52:50;;;;;;;0.50;0.50;;;7.30;99.90;;;;;;5019899;28;20124;-73
2023/12/13 05:55:15;;;;;;;0.80;0.80;;;7.20;99.90;;;;;;5026143;28;20048;-73
2023/12/13 05:57:41;;;;;;;0.47;0.47;;;7.30;99.90;;;;;;5022387;28;20258;-74
2023/12/13 06:00:08;;;;;;;0.40;0.40;;;7.30;99.90;;;;;;5026596;28;20053;-74
2023/12/13 06:02:37;;;;;;;2.42;1.73;;;7.20;99.90;;;;;;5022678;28;20037;-74
2023/12/13 06:05:03;;;;;;;0.40;0.40;;;7.20;99.90;;;;;;5024186;28;20049;-73
2023/12/13 06:07:32;;;;;;;0.50;0.50;;;7.20;99.90;;;;;;5021331;28;20791;-74
2023/12/13 06:09:58;;;;;;;1.70;1.38;;;7.30;99.90;;;;;;5002628;28;20045;-73
2023/12/13 06:12:23;;;;;;;1.25;1.25;;;7.30;99.90;;;;;;5002199;28;20041;-73
2023/12/13 06:14:51;;;;;;;0.40;0.40;;;7.30;99.90;;;;;;5000171;28;20050;-74
2023/12/13 06:17:17;;;;;;;0.73;0.73;;;7.30;99.90;;;;;;5002114;28;20049;-75
2023/12/13 06:19:42;;;;;;;0.70;0.70;;;7.20;99.90;;;;;;5003096;28;20187;-74
2023/12/13 06:22:10;;;;;;;1.23;1.13;;;7.20;99.90;;;;;;4986118;28;20104;-73
2023/12/13 06:24:35;;;;;;;0.43;0.43;;;7.30;99.90;;;;;;5000058;28;20061;-74
2023/12/13 06:27:01;;;;;;;0.57;0.57;;;7.20;99.90;;;;;;5007476;28;20107;-73
2023/12/13 06:29:26;;;;;;;0.45;0.45;;;7.20;99.90;;;;;;5002481;28;20064;-73
2023/12/13 06:31:52;;;;;;;0.50;0.50;;;7.20;99.90;;;;;;5004842;28;20576;-74
2023/12/13 06:34:17;;;;;;;0.57;0.57;;;7.20;99.90;;;;;;5001031;28;20828;-74
2023/12/13 06:36:43;;;;;;;1.42;1.20;;;7.20;99.90;;;;;;4985883;28;20045;-74
2023/12/13 06:39:11;;;;;;;0.70;0.70;;;7.20;99.90;;;;;;5001127;28;20056;-74
2023/12/13 06:41:40;;;;;;;1.10;1.08;;;7.20;99.90;;;;;;5000431;28;20064;-74
2023/12/13 06:44:06;;;;;;;0.60;0.60;;;7.20;99.90;;;;;;5000740;28;20052;-73
2023/12/13 06:46:32;;;;;;;0.50;0.50;;;7.20;99.90;;;;;;5001299;28;20098;-75
2023/12/13 06:48:57;;;;;;;0.60;0.60;;;7.20;99.90;;;;;;5001324;28;20461;-73
2023/12/13 06:51:23;;;;;;;1.08;1.08;;;7.20;99.90;;;;;;5001729;28;20045;-73
2023/12/13 06:53:49;;;;;;;0.75;0.73;;;7.10;99.90;;;;;;5012621;28;20057;-73
2023/12/13 06:56:14;;;;;;;0.57;0.57;;;7.20;99.90;;;;;;5003923;28;20180;-73
2023/12/13 06:58:40;;;;;;;1.10;0.60;;;7.10;99.90;;;;;;5001248;28;20053;-74
2023/12/13 07:01:05;;;;;;;0.80;0.80;;;7.10;99.90;;;;;;5003753;28;20091;-73
2023/12/13 07:03:31;;;;;;;0.70;0.70;;;7.10;99.90;;;;;;5004250;28;20052;-73
2023/12/13 07:05:57;;;;;;;0.40;0.40;;;7.10;99.90;;;;;;5015340;28;20049;-72
2023/12/13 07:08:23;;;;;;;0.50;0.50;;;7.10;99.90;;;;;;5024925;28;20057;-73
2023/12/13 07:10:48;;;;;;;0.60;0.60;;;7.10;99.90;;;;;;5019536;28;20515;-73
2023/12/13 07:13:14;;;;;;;1.30;0.60;;;7.10;99.90;;;;;;5024376;28;20087;-73
2023/12/13 07:15:39;;;;;;;0.75;0.63;;;7.10;99.90;;;;;;5004931;28;20115;-73
2023/12/13 07:18:05;;;;;;;0.85;0.85;;;7.10;99.90;;;;;;5015409;28;20042;-73
2023/12/13 07:20:31;;;;;;;0.73;0.73;;;7.00;99.90;;;;;;5018503;28;20140;-73
2023/12/13 07:22:57;;;;;;;0.40;0.40;;;7.00;99.90;;;;;;5016316;28;20148;-73
2023/12/13 07:25:22;;;;;;;0.30;0.30;;;7.00;99.90;;;;;;5020463;28;20065;-73
2023/12/13 07:27:48;;;;;;;0.40;0.40;;;7.00;99.90;;;;;;5019424;28;20076;-73
2023/12/13 07:30:14;;;;;;;0.88;0.80;;;7.00;99.90;;;;;;5022527;28;20111;-73
2023/12/13 07:32:41;;;;;;;0.60;0.60;;;7.00;99.90;;;;;;5019827;28;20056;-73
2023/12/13 07:35:07;;;;;;;0.50;0.50;;;7.10;99.90;;;;;;5016118;28;20048;-73
2023/12/13 07:37:33;;;;;;;0.68;0.52;;;7.00;99.90;;;;;;5028458;28;20079;-73
2023/12/13 07:39:58;;;;;;;1.58;0.98;;;7.00;99.90;;;;;;5028638;28;20924;-74
2023/12/13 07:42:24;;;;;;;0.65;0.65;;;7.00;99.90;;;;;;5027108;28;20049;-73
2023/12/13 07:44:49;;;;;;;1.42;1.33;;;7.00;99.90;;;;;;5027175;28;20037;-74
2023/12/13 07:47:15;;;;;;;1.90;1.63;;;7.00;99.90;;;;;;5029242;28;20050;-74
2023/12/13 07:49:41;;;;;;;1.15;1.15;;;7.00;99.90;;;;;;5026201;28;20052;-73
2023/12/13 07:52:06;;;;;;;0.50;0.50;;;7.00;99.90;;;;;;5027174;28;20064;-74
2023/12/13 07:54:33;;;;;;;0.52;0.52;;;7.00;99.90;;;;;;5029130;28;20124;-74
2023/12/13 07:56:59;;;;;;;0.88;0.88;;;7.00;99.90;;;;;;5029920;28;20956;-74
2023/12/13 07:59:25;;;;;;;0.73;0.70;;;7.00;99.90;;;;;;5032442;28;20073;-74
2023/12/13 08:01:51;;;;;;;0.60;0.60;;;7.00;99.90;;;;;;5029568;28;20072;-74
2023/12/13 08:04:16;;;;;;;0.57;0.57;;;7.00;99.90;;;;;;5027112;28;20058;-74
2023/12/13 08:06:42;;;;;;;0.60;0.60;;;7.10;99.90;;;;;;5029319;28;20052;-74
2023/12/13 08:09:10;;;;;;;1.45;0.77;;;7.00;99.90;;;;;;5026905;28;20049;-74
2023/12/13 08:11:36;;;;;;;;;;;7.10;99.90;;;;;;5029611;28;20121;-73
2023/12/13 08:14:03;;;;;;;0.50;0.50;;;7.10;99.90;;;;;;5030269;28;19925;-74
2023/12/13 08:16:28;;;;;;;0.55;0.55;;;7.10;99.90;;;;;;5029510;28;20392;-73
2023/12/13 08:18:55;;;;;;;1.33;1.30;;;7.10;99.90;;;;;;5026044;28;20064;-74
2023/12/13 08:21:24;;;;;;;0.47;0.47;;;7.10;99.90;;;;;;5011759;28;20076;-75
2023/12/13 08:23:50;;;;;;;0.85;0.85;;;7.10;99.90;;;;;;5029333;28;20398;-74
2023/12/13 08:26:16;;;;;;;0.60;0.60;;;7.20;99.90;;;;;;5027138;28;20132;-73
2023/12/13 08:28:42;;;;;;;0.63;0.63;;;7.20;99.90;;;;;;5032224;28;20509;-73
2023/12/13 08:31:10;;;;;;;0.70;0.70;;;7.20;99.90;;;;;;5031068;28;20135;-74
2023/12/13 08:33:35;;;;;;;0.60;0.60;;;7.20;99.90;;;;;;5025141;28;20045;-74
2023/12/13 08:36:04;;;;;;;1.08;0.98;;;7.20;99.90;;;;;;5025019;28;20049;-73
2023/12/13 08:38:30;;;;;;;0.50;0.50;;;7.30;99.90;;;;;;5027122;28;20808;-73
2023/12/13 08:40:56;;;;;;;0.40;0.40;;;7.30;99.90;;;;;;5026641;28;20053;-73
2023/12/13 08:43:22;;;;;;;1.73;0.88;;;7.30;99.90;;;;;;5027614;28;20132;-73
2023/12/13 08:45:48;;;;;;;0.65;0.65;;;7.30;99.90;;;;;;5025938;28;20079;-73
2023/12/13 08:48:13;;;;;;;0.57;0.57;;;7.40;99.90;;;;;;5025166;28;20056;-73
2023/12/13 08:50:40;;;;;;;0.77;0.77;;;7.40;99.90;;;;;;5026446;28;20491;-73
2023/12/13 08:53:05;;;;;;;0.60;0.60;;;7.40;99.90;;;;;;5027845;28;20041;-73
2023/12/13 08:55:31;;;;;;;0.98;0.93;;;7.40;99.90;;;;;;5015880;28;20053;-73
2023/12/13 08:57:56;;;;;;;2.85;2.10;;;7.50;99.90;;;;;;5023307;28;20048;-73
2023/12/13 09:00:22;;;;;;;0.95;0.95;;;7.50;99.90;;;;;;5025367;28;20117;-73
2023/12/13 09:02:47;;;;;;;0.70;0.70;;;7.50;99.90;;;;;;5025514;28;20193;-73
2023/12/13 09:05:13;;;;;;;0.80;0.80;;;7.50;99.90;;;;;;5024565;28;20057;-73
2023/12/13 09:07:39;;;;;;;1.50;1.33;;;7.50;99.90;;;;;;5027949;28;20112;-73
2023/12/13 09:10:08;;;;;;;0.45;0.45;;;7.60;99.90;;;;;;5023230;28;20042;-73
2023/12/13 09:12:33;;;;;;;0.90;0.90;;;7.60;99.90;;;;;;5025352;28;20081;-73
2023/12/13 09:14:59;;;;;;;0.75;0.75;;;7.60;99.90;;;;;;5023319;28;20142;-73
2023/12/13 09:17:25;;;;;;;1.27;1.25;;;7.60;99.90;;;;;;5026195;28;20080;-73
2023/12/13 09:19:50;;;;;;;1.27;1.27;;;7.60;99.90;;;;;;5026073;28;20041;-73
2023/12/13 09:22:17;;;;;;;1.15;1.05;;;7.70;99.90;;;;;;5019904;28;20049;-73
2023/12/13 09:24:43;;;;;;;0.80;0.80;;;7.70;99.90;;;;;;5023609;28;20075;-73
2023/12/13 09:27:09;;;;;;;0.43;0.43;;;7.70;99.90;;;;;;5025177;28;20049;-73
2023/12/13 09:29:34;;;;;;;0.80;0.80;;;7.70;99.90;;;;;;5021877;28;20073;-73
2023/12/13 09:32:00;;;;;;;0.40;0.40;;;7.70;99.90;;;;;;5022881;28;20453;-73
2023/12/13 09:34:26;;;;;;;2.80;1.05;;;7.80;99.90;;;;;;5023542;28;20064;-73
2023/12/13 09:36:52;;;;;;;0.82;0.82;;;7.80;99.90;;;;;;5026026;28;20573;-73
2023/12/13 09:39:18;;;;;;;0.88;0.88;;;7.80;99.90;;;;;;5022560;28;20161;-73
2023/12/13 09:41:54;;;;;;;1.20;1.20;;;7.80;99.90;;;;;;5024326;28;20052;-73
2023/12/13 09:44:23;;;;;;;0.47;0.47;;;7.90;99.90;;;;;;5025205;28;20414;-73
2023/12/13 09:46:51;;;;;;;1.60;1.50;;;7.90;99.90;;;;;;5023768;28;20037;-73
2023/12/13 09:49:17;;;;;;;1.05;0.98;;;7.90;99.90;;;;;;5024561;28;20107;-73
2023/12/13 09:51:46;;;;;;;1.27;1.17;;;7.90;99.90;;;;;;5024961;28;20033;-73
2023/12/13 09:54:12;;;;;;;1.70;1.52;;;7.90;99.90;;;;;;5020010;28;20107;-72
2023/12/13 09:56:39;;;;;;;0.88;0.88;;;7.90;99.90;;;;;;5022016;28;20049;-74
2023/12/13 09:59:04;;;;;;;2.55;1.83;;;8.00;99.90;;;;;;5017830;28;20053;-73
2023/12/13 10:01:30;;;;;;;2.25;2.10;;;8.00;99.90;;;;;;5025192;28;20052;-73
2023/12/13 10:03:57;;;;;;;0.93;0.93;;;8.00;99.90;;;;;;5023220;28;20136;-73
2023/12/13 10:06:23;;;;;;;0.95;0.95;;;8.00;99.90;;;;;;5024892;28;20049;-73
2023/12/13 10:09:01;;;;;;;1.35;1.02;;;8.00;99.90;;;;;;5019776;28;20045;-73
2023/12/13 10:11:27;;;;;;;2.92;2.58;;;8.00;99.90;;;;;;5020894;28;20042;-73
2023/12/13 10:13:53;;;;;;;1.65;1.55;;;8.00;99.90;;;;;;5021434;28;20042;-73
2023/12/13 10:16:19;;;;;;;3.85;2.00;;;8.10;99.90;;;;;;5020117;28;20171;-73
2023/12/13 10:18:47;;;;;;;1.95;1.48;;;8.10;99.90;;;;;;5021405;28;20498;-73
2023/12/13 10:21:14;;;;;;;1.23;1.13;;;8.10;99.90;;;;;;5016835;28;20050;-73
2023/12/13 10:23:43;;;;;;;3.33;1.08;;;8.10;99.90;;;;;;5019264;28;20281;-72
2023/12/13 10:26:09;;;;;;;0.55;0.55;;;8.10;99.90;;;;;;5018312;28;20541;-73
2023/12/13 10:28:35;;;;;;;7.72;2.30;;;8.20;99.90;;;;;;5024590;28;20399;-73
2023/12/13 10:31:02;;;;;;;1.10;1.10;;;8.20;99.90;;;;;;5023644;28;20041;-72
2023/12/13 10:33:27;;;;;;;0.90;0.90;;;8.20;99.90;;;;;;5023875;28;20053;-73
2023/12/13 10:35:56;;;;;;;1.52;1.42;;;8.20;99.90;;;;;;5018490;28;20057;-73
2023/12/13 10:38:25;;;;;;;0.80;0.80;;;8.20;99.90;;;;;;5020660;28;20041;-73
2023/12/13 10:40:51;;;;;;;0.73;0.73;;;8.20;99.90;;;;;;5018210;28;20042;-73
2023/12/13 10:43:18;;;;;;;2.00;1.00;;;8.20;99.90;;;;;;5021954;28;20053;-73
2023/12/13 10:45:50;;;;;;;2.00;1.90;;;8.30;99.90;;;;;;5023208;28;20506;-75
2023/12/13 10:48:19;;;;;;;1.48;1.20;;;8.30;99.90;;;;;;5014865;28;20045;-73
2023/12/13 10:50:48;;;;;;;0.68;0.68;;;8.20;99.90;;;;;;5019818;28;20041;-73
2023/12/13 10:53:16;;;;;;;1.27;1.25;;;8.20;99.90;;;;;;5021999;28;20392;-73
2023/12/13 10:55:43;;;;;;;2.03;1.92;;;8.30;99.90;;;;;;5025421;28;20743;-73
2023/12/13 10:58:09;;;;;;;1.40;1.30;;;8.30;99.90;;;;;;5022380;28;20495;-73
2023/12/13 11:00:36;;;;;;;1.83;1.67;;;8.30;99.90;;;;;;5015782;28;20139;-73
2023/12/13 11:03:32;;;;;;;0.70;0.70;;;8.30;99.90;;;;;;5015994;28;20053;-72
2023/12/13 11:06:03;;;;;;;2.03;1.67;;;8.30;99.90;;;;;;4995357;28;20056;-73
2023/12/13 11:08:38;;;;;;;1.00;1.00;;;8.30;99.90;;;;;;5022308;28;20041;-72
2023/12/13 11:11:10;;;;;;;2.53;1.88;;;8.30;99.90;;;;;;5021736;28;20041;-73
2023/12/13 11:13:51;;;;;;;2.67;1.63;;;8.30;99.90;;;;;;5021270;28;20045;-73
2023/12/13 11:16:20;;;;;;;3.10;1.25;;;8.20;99.90;;;;;;5018350;28;20058;-73
2023/12/13 11:18:51;;;;;;;1.15;1.15;;;8.30;99.90;;;;;;5021882;28;20446;-73
2023/12/13 11:21:33;;;;;;;1.13;1.00;;;8.30;99.90;;;;;;5017847;28;20057;-73
2023/12/13 11:24:14;;;;;;;3.92;2.08;;;8.30;99.90;;;;;;5019152;28;20050;-73
2023/12/13 11:26:42;;;;;;;0.70;0.70;;;8.30;99.90;;;;;;5020434;28;20522;-73
2023/12/13 11:29:15;;;;;;;;;;;8.30;99.90;;;;;;5018006;28;20080;-73
2023/12/13 11:32:00;;;;;;;0.80;0.80;;;8.30;99.90;;;;;;5023303;28;19925;-73
2023/12/13 11:34:32;;;;;;;2.17;1.83;;;8.30;99.90;;;;;;5017165;28;20053;-73
2023/12/13 11:37:00;;;;;;;5.70;3.13;;;8.30;99.90;;;;;;5018199;28;20690;-72
2023/12/13 11:39:28;;;;;;;0.85;0.85;;;8.30;99.90;;;;;;5020788;28;20041;-73
2023/12/13 11:41:53;;;;;;;0.40;0.40;;;8.30;99.90;;;;;;5018786;28;20560;-73
2023/12/13 11:44:19;;;;;;;1.63;1.52;;;8.30;99.90;;;;;;5018664;28;20308;-73
2023/12/13 11:46:53;;;;;;;1.95;1.02;;;8.30;99.90;;;;;;5021674;28;20045;-73
2023/12/13 11:49:20;;;;;;;1.70;1.45;;;8.30;99.90;;;;;;5019520;28;20446;-73
2023/12/13 11:51:47;;;;;;;1.10;1.10;;;8.30;99.90;;;;;;5021181;28;20428;-73
2023/12/13 11:54:13;;;;;;;7.22;3.65;;;8.30;99.90;;;;;;5024029;28;20053;-73
2023/12/13 11:56:41;;;;;;;2.40;2.20;;;8.30;99.90;;;;;;5025315;28;20043;-73
2023/12/13 11:59:07;;;;;;;3.75;1.40;;;8.30;99.90;;;;;;5016840;28;20605;-73
2023/12/13 12:01:32;;;;;;;1.83;1.58;;;8.30;99.90;;;;;;5016588;28;20041;-73
2023/12/13 12:03:58;;;;;;;2.20;1.63;;;8.30;99.90;;;;;;5020422;28;20076;-73
2023/12/13 12:06:24;;;;;;;0.80;0.80;;;8.30;99.90;;;;;;5019706;28;20405;-73
2023/12/13 12:08:49;;;;;;;1.33;1.23;;;8.30;99.90;;;;;;5021596;28;20049;-73
2023/12/13 12:11:18;;;;;;;6.75;2.58;;;8.30;99.90;;;;;;5022446;28;20069;-73
2023/12/13 12:13:44;;;;;;;1.58;1.50;;;8.40;99.90;;;;;;5021195;28;20176;-73
2023/12/13 12:16:10;;;;;;;3.90;2.17;;;8.40;99.90;;;;;;5019506;28;20105;-73
2023/12/13 12:18:38;;;;;;;5.35;2.92;;;8.30;99.90;;;;;;5016444;28;20053;-73
2023/12/13 12:21:07;;;;;;;1.90;1.80;;;8.40;99.90;;;;;;5022707;28;20038;-73
2023/12/13 12:23:38;;;;;;;4.05;3.00;;;8.30;99.90;;;;;;5022855;28;20288;-73
2023/12/13 12:26:13;;;;;;;2.65;2.45;;;8.40;99.90;;;;;;5023598;28;20052;-73
2023/12/13 12:28:40;;;;;;;1.60;1.50;;;8.40;99.90;;;;;;5013051;28;20245;-73
2023/12/13 12:31:08;;;;;;;2.60;2.08;;;8.40;99.90;;;;;;5021360;28;20334;-73
2023/12/13 12:33:34;;;;;;;0.93;0.90;;;8.40;99.90;;;;;;5023058;28;20093;-72
2023/12/13 12:36:00;;;;;;;1.55;1.50;;;8.40;99.90;;;;;;5022337;28;20085;-73
2023/12/13 12:38:26;;;;;;;2.70;2.10;;;8.40;99.90;;;;;;5022215;28;20394;-73
2023/12/13 12:40:52;;;;;;;10.75;1.90;;;8.40;99.90;;;;;;5026197;28;20076;-73
2023/12/13 12:43:19;;;;;;;3.97;2.70;;;8.40;99.90;;;;;;5024701;28;20096;-73
2023/12/13 12:45:48;;;;;;;2.47;1.77;;;8.40;99.90;;;;;;5026155;28;20053;-73
2023/12/13 12:48:14;;;;;;;1.98;1.73;;;8.40;99.90;;;;;;5028101;28;20119;-72
2023/12/13 12:50:40;;;;;;;0.95;0.95;;;8.40;99.90;;;;;;5024764;28;20049;-72
2023/12/13 12:53:07;;;;;;;3.13;2.83;;;8.40;99.90;;;;;;5026899;28;20049;-73
2023/12/13 12:55:33;;;;;;;2.88;2.63;;;8.40;99.90;;;;;;5022790;28;20061;-73